Time;durP1;ratioP1;P1;durP2;ratioP2;P2;SDS_P1;SDS_P2;PMS_P1;PMS_P2;Temp;Humidity;BMP_temperature;BMP_pressure;BME280_temperature;BME280_humidity;BME280_pressure;Samples;Min_cycle;Max_cycle;Signal;HPM_P1;HPM_P2
2022/10/08 00:01:44;;;;;;;11.38;5.70;;;12.10;99.90;;;;;;4999999;28;20214;-75
2022/10/08 00:04:11;;;;;;;11.10;5.13;;;12.10;99.90;;;;;;5025179;28;20199;-76
2022/10/08 00:06:38;;;;;;;16.13;4.50;;;12.10;99.90;;;;;;5014418;28;20224;-76
2022/10/08 00:09:07;;;;;;;16.05;5.32;;;12.10;99.90;;;;;;5025804;28;20320;-79
2022/10/08 00:11:37;;;;;;;15.40;4.88;;;12.10;99.90;;;;;;5019353;28;20209;-78
2022/10/08 00:14:05;;;;;;;23.38;4.50;;;12.10;99.90;;;;;;5021677;28;20669;-74
2022/10/08 00:16:33;;;;;;;8.70;4.30;;;12.10;99.90;;;;;;5028740;28;20208;-73
2022/10/08 00:19:02;;;;;;;13.63;4.43;;;12.20;99.90;;;;;;5029363;28;20219;-75
2022/10/08 00:21:31;;;;;;;13.85;5.10;;;12.10;99.90;;;;;;5036156;28;20265;-76
2022/10/08 00:24:00;;;;;;;12.07;6.15;;;12.20;99.90;;;;;;5031294;28;20270;-75
2022/10/08 00:26:28;;;;;;;14.10;5.30;;;12.20;99.90;;;;;;5024106;28;20215;-77
2022/10/08 00:29:00;;;;;;;13.10;4.00;;;12.20;99.90;;;;;;5027917;28;20303;-74
2022/10/08 00:31:29;;;;;;;10.32;4.28;;;12.10;99.90;;;;;;5023542;28;20638;-74
2022/10/08 00:33:58;;;;;;;16.52;6.05;;;12.10;99.90;;;;;;5026152;28;20195;-78
2022/10/08 00:36:28;;;;;;;14.00;4.38;;;12.10;99.90;;;;;;5029993;28;20223;-74
2022/10/08 00:38:56;;;;;;;8.65;4.32;;;12.00;99.90;;;;;;5014600;28;20234;-75
2022/10/08 00:41:25;;;;;;;13.27;4.55;;;12.00;99.90;;;;;;5025795;28;20243;-76
2022/10/08 00:43:54;;;;;;;8.45;4.18;;;11.90;99.90;;;;;;5019820;28;20258;-74
2022/10/08 00:46:27;;;;;;;9.23;3.75;;;11.80;99.90;;;;;;5015637;28;20214;-77
2022/10/08 00:48:58;;;;;;;10.23;4.20;;;11.90;99.90;;;;;;5020750;28;20287;-77
2022/10/08 00:51:25;;;;;;;15.70;4.82;;;11.90;99.90;;;;;;5017810;28;20217;-77
2022/10/08 00:53:53;;;;;;;19.10;5.20;;;11.90;99.90;;;;;;5021979;28;20226;-77
2022/10/08 00:56:21;;;;;;;8.43;3.80;;;12.00;99.90;;;;;;5015372;28;20298;-75
2022/10/08 00:58:49;;;;;;;14.70;4.68;;;11.80;99.90;;;;;;5011505;28;20253;-77
2022/10/08 01:01:17;;;;;;;13.80;5.65;;;11.80;99.90;;;;;;5021829;28;20223;-74
2022/10/08 01:03:45;;;;;;;7.13;3.83;;;11.90;99.90;;;;;;5023698;28;20300;-76
2022/10/08 01:06:21;;;;;;;12.00;4.88;;;11.80;99.90;;;;;;5019896;28;20301;-77
2022/10/08 01:08:58;;;;;;;9.15;5.03;;;11.80;99.90;;;;;;5021450;28;20308;-78
2022/10/08 01:11:44;;;;;;;10.10;5.88;;;11.80;99.90;;;;;;5014718;28;20663;-74
2022/10/08 01:14:31;;;;;;;11.10;3.70;;;11.70;99.90;;;;;;5019520;28;20217;-74
2022/10/08 01:17:06;;;;;;;12.00;4.15;;;11.70;99.90;;;;;;5020345;28;20203;-76
2022/10/08 01:20:01;;;;;;;15.07;5.03;;;11.80;99.90;;;;;;5016860;28;20612;-75
2022/10/08 01:22:40;;;;;;;11.77;5.10;;;11.70;99.90;;;;;;5017084;28;20239;-75
2022/10/08 01:25:32;;;;;;;6.60;3.88;;;11.70;99.90;;;;;;5012598;28;20281;-74
2022/10/08 01:28:04;;;;;;;13.52;4.28;;;11.70;99.90;;;;;;5009749;28;20311;-74
2022/10/08 01:30:35;;;;;;;11.52;4.47;;;11.90;99.90;;;;;;5020678;28;20281;-75
2022/10/08 01:33:11;;;;;;;14.05;4.65;;;12.00;99.90;;;;;;5035191;28;20199;-75
2022/10/08 01:35:43;;;;;;;11.38;3.53;;;12.00;99.90;;;;;;5025567;28;20200;-75
2022/10/08 01:38:14;;;;;;;9.70;3.63;;;12.00;99.90;;;;;;5008793;28;20334;-76
2022/10/08 01:40:43;;;;;;;14.80;4.30;;;12.00;99.90;;;;;;5019353;28;20227;-77
2022/10/08 01:43:17;;;;;;;8.93;3.35;;;12.00;99.90;;;;;;5025712;28;20293;-75
2022/10/08 01:45:50;;;;;;;9.43;5.22;;;12.10;99.90;;;;;;5026059;28;20203;-77
2022/10/08 01:48:22;;;;;;;13.60;4.70;;;12.10;99.90;;;;;;5020988;28;20249;-75
2022/10/08 01:50:55;;;;;;;15.18;5.57;;;12.10;99.90;;;;;;5014409;28;20201;-76
2022/10/08 01:53:26;;;;;;;15.10;3.33;;;12.00;99.90;;;;;;5022387;28;20301;-75
2022/10/08 01:55:55;;;;;;;11.60;3.42;;;12.00;99.90;;;;;;5019464;28;20723;-74
2022/10/08 01:58:29;;;;;;;10.98;3.15;;;12.00;99.90;;;;;;5025883;28;20238;-76
2022/10/08 02:01:00;;;;;;;13.82;4.07;;;12.00;99.90;;;;;;5018981;28;20223;-77
2022/10/08 02:03:27;;;;;;;11.07;4.18;;;12.00;99.90;;;;;;5026690;28;20203;-76
2022/10/08 02:05:55;;;;;;;14.50;4.22;;;12.10;99.90;;;;;;5021135;28;20235;-75
2022/10/08 02:08:23;;;;;;;15.50;4.78;;;12.00;99.90;;;;;;5027376;28;20314;-76
2022/10/08 02:10:51;;;;;;;14.57;3.63;;;12.10;99.90;;;;;;5023149;28;20693;-77
2022/10/08 02:13:19;;;;;;;8.82;4.20;;;12.00;99.90;;;;;;5021884;28;20242;-77
2022/10/08 02:15:54;;;;;;;14.90;3.97;;;12.00;99.90;;;;;;5025713;28;20207;-76
2022/10/08 02:18:30;;;;;;;9.10;3.92;;;12.10;99.90;;;;;;5012308;28;20306;-75
2022/10/08 02:21:00;;;;;;;18.45;4.65;;;12.10;99.90;;;;;;5018953;28;20225;-77
2022/10/08 02:23:31;;;;;;;11.10;3.80;;;12.20;99.90;;;;;;5015212;28;20224;-77
2022/10/08 02:26:00;;;;;;;14.35;3.90;;;12.20;99.90;;;;;;5022044;28;20199;-74
2022/10/08 02:28:36;;;;;;;11.25;3.80;;;12.10;99.90;;;;;;5018549;28;20234;-76
2022/10/08 02:31:10;;;;;;;10.10;3.20;;;12.20;99.90;;;;;;5023387;28;20242;-76
2022/10/08 02:33:43;;;;;;;12.60;5.15;;;12.10;99.90;;;;;;5004005;28;20281;-76
2022/10/08 02:36:12;;;;;;;18.88;4.25;;;12.10;99.90;;;;;;5017684;28;20204;-74
2022/10/08 02:38:44;;;;;;;9.02;3.70;;;12.10;99.90;;;;;;5017923;28;20227;-76
2022/10/08 02:41:14;;;;;;;19.80;4.28;;;12.10;99.90;;;;;;5017459;28;20231;-77
2022/10/08 02:43:47;;;;;;;13.60;4.70;;;12.00;99.90;;;;;;5023486;28;20205;-74
2022/10/08 02:46:18;;;;;;;16.35;5.03;;;12.10;99.90;;;;;;5016158;28;20284;-75
2022/10/08 02:48:50;;;;;;;6.20;3.30;;;12.10;99.90;;;;;;5016248;28;20225;-77
2022/10/08 02:51:19;;;;;;;17.10;5.18;;;12.20;99.90;;;;;;5019970;28;20209;-76
2022/10/08 02:53:48;;;;;;;14.25;4.45;;;12.20;99.90;;;;;;5014345;28;20205;-73
2022/10/08 02:56:19;;;;;;;17.13;4.68;;;12.20;99.90;;;;;;5017921;28;20226;-75
2022/10/08 02:58:46;;;;;;;9.77;3.28;;;12.20;99.90;;;;;;5023209;28;20318;-74
2022/10/08 03:01:22;;;;;;;11.13;4.22;;;12.20;99.90;;;;;;5025288;28;20223;-73
2022/10/08 03:03:57;;;;;;;12.95;4.93;;;12.30;99.90;;;;;;5028818;28;20200;-73
2022/10/08 03:06:26;;;;;;;19.38;6.10;;;12.30;99.90;;;;;;5029598;28;20286;-74
2022/10/08 03:08:58;;;;;;;9.18;4.20;;;12.40;99.90;;;;;;5021254;28;20250;-75
2022/10/08 03:11:25;;;;;;;18.63;4.57;;;12.40;99.90;;;;;;5022012;28;20257;-76
2022/10/08 03:13:56;;;;;;;11.38;3.63;;;12.50;99.90;;;;;;5019012;28;20210;-76
2022/10/08 03:16:30;;;;;;;15.02;4.40;;;12.50;99.90;;;;;;5021649;28;20659;-73
2022/10/08 03:18:58;;;;;;;13.65;4.55;;;12.50;99.90;;;;;;5032945;28;20229;-75
2022/10/08 03:21:27;;;;;;;12.65;5.05;;;12.50;99.90;;;;;;5015440;28;20242;-76
2022/10/08 03:23:54;;;;;;;12.35;6.10;;;12.50;99.90;;;;;;5021183;28;20569;-75
2022/10/08 03:26:21;;;;;;;9.65;3.20;;;12.50;99.90;;;;;;5012995;28;20327;-75
2022/10/08 03:28:48;;;;;;;17.80;5.28;;;12.60;99.90;;;;;;5003437;28;20702;-74
2022/10/08 03:31:15;;;;;;;12.82;4.40;;;12.60;99.90;;;;;;5009577;28;20686;-75
2022/10/08 03:33:43;;;;;;;18.63;4.60;;;12.60;99.90;;;;;;5026292;28;20679;-75
2022/10/08 03:36:10;;;;;;;11.85;4.70;;;12.60;99.90;;;;;;5022221;28;20202;-73
2022/10/08 03:38:37;;;;;;;12.60;4.30;;;12.60;99.90;;;;;;5017914;28;20224;-74
2022/10/08 03:41:03;;;;;;;9.27;3.83;;;12.70;99.90;;;;;;5019162;28;20243;-76
2022/10/08 03:43:32;;;;;;;12.15;3.50;;;12.70;99.90;;;;;;5014470;28;20197;-75
2022/10/08 03:46:00;;;;;;;9.48;3.83;;;12.70;99.90;;;;;;5024423;28;20651;-77
2022/10/08 03:48:27;;;;;;;12.32;3.88;;;12.70;99.90;;;;;;5018721;28;20783;-75
2022/10/08 03:50:58;;;;;;;13.88;3.97;;;12.70;99.90;;;;;;5038427;28;20217;-77
2022/10/08 03:53:26;;;;;;;15.63;4.43;;;12.70;99.90;;;;;;5032200;28;20230;-78
2022/10/08 03:55:53;;;;;;;13.30;3.95;;;12.80;99.90;;;;;;5027308;28;20271;-74
2022/10/08 03:58:21;;;;;;;15.57;4.80;;;12.80;99.90;;;;;;5027926;28;20281;-76
2022/10/08 04:01:00;;;;;;;11.45;4.88;;;12.80;99.90;;;;;;5012977;28;20222;-74
2022/10/08 04:03:28;;;;;;;13.00;4.90;;;12.80;99.90;;;;;;5019313;28;20207;-75
2022/10/08 04:05:56;;;;;;;12.23;4.63;;;12.90;99.90;;;;;;5007321;28;20347;-77
2022/10/08 04:08:23;;;;;;;9.85;5.03;;;12.80;99.90;;;;;;5024122;28;20309;-75
2022/10/08 04:10:50;;;;;;;6.85;3.10;;;12.90;99.90;;;;;;5020512;28;20274;-77
2022/10/08 04:13:18;;;;;;;7.68;3.38;;;12.90;99.90;;;;;;5010197;28;20212;-76
2022/10/08 04:15:47;;;;;;;10.48;4.22;;;12.90;99.90;;;;;;5025316;28;20286;-75
2022/10/08 04:18:14;;;;;;;10.02;4.20;;;12.90;99.90;;;;;;5009592;28;20240;-74
2022/10/08 04:20:41;;;;;;;10.75;3.88;;;12.90;99.90;;;;;;5021677;28;20204;-75
2022/10/08 04:23:12;;;;;;;10.85;3.50;;;12.90;99.90;;;;;;5016358;28;20200;-74
2022/10/08 04:25:38;;;;;;;10.13;3.90;;;12.90;99.90;;;;;;5027860;28;20658;-74
2022/10/08 04:28:06;;;;;;;7.30;3.30;;;12.90;99.90;;;;;;5018592;28;20250;-76
2022/10/08 04:30:33;;;;;;;7.32;4.25;;;13.00;99.90;;;;;;5015095;28;20206;-74
2022/10/08 04:32:59;;;;;;;18.05;4.13;;;13.00;99.90;;;;;;5007346;28;20292;-75
2022/10/08 04:35:26;;;;;;;17.95;7.00;;;13.00;99.90;;;;;;5021202;28;20212;-73
2022/10/08 04:37:53;;;;;;;8.88;3.97;;;13.00;99.90;;;;;;5022672;28;20219;-75
2022/10/08 04:40:21;;;;;;;8.40;4.15;;;13.00;99.90;;;;;;5024505;28;20311;-76
2022/10/08 04:42:51;;;;;;;15.27;3.90;;;12.90;99.90;;;;;;5016764;28;20263;-76
2022/10/08 04:45:18;;;;;;;7.18;3.88;;;12.90;99.90;;;;;;5026324;28;20215;-76
2022/10/08 04:47:45;;;;;;;9.63;3.50;;;13.00;99.90;;;;;;5023827;28;20227;-75
2022/10/08 04:50:11;;;;;;;13.25;2.88;;;12.80;99.90;;;;;;5026135;28;20231;-75
2022/10/08 04:52:38;;;;;;;10.60;5.00;;;12.80;99.90;;;;;;5026082;28;20291;-76
2022/10/08 04:55:06;;;;;;;8.05;3.70;;;12.80;99.90;;;;;;5027664;28;20504;-75
2022/10/08 04:57:35;;;;;;;10.77;4.38;;;12.80;99.90;;;;;;5028267;28;20282;-75
2022/10/08 05:00:02;;;;;;;10.75;3.97;;;12.70;99.90;;;;;;5025667;28;20205;-74
2022/10/08 05:02:29;;;;;;;8.60;3.90;;;12.70;99.90;;;;;;5025262;28;20287;-76
2022/10/08 05:04:55;;;;;;;6.78;4.35;;;12.80;99.90;;;;;;5037460;28;20290;-74
2022/10/08 05:07:23;;;;;;;8.65;4.38;;;12.80;99.90;;;;;;5029460;28;20238;-76
2022/10/08 05:09:51;;;;;;;26.58;6.28;;;12.80;99.90;;;;;;5020427;28;20203;-75
2022/10/08 05:12:17;;;;;;;12.15;5.28;;;12.80;99.90;;;;;;5021198;28;20286;-74
2022/10/08 05:14:46;;;;;;;14.55;5.20;;;12.70;99.90;;;;;;5027601;28;20652;-74
2022/10/08 05:17:13;;;;;;;13.93;5.00;;;12.70;99.90;;;;;;5022810;28;20243;-76
2022/10/08 05:19:40;;;;;;;14.85;5.32;;;12.70;99.90;;;;;;5013239;28;20214;-76
2022/10/08 05:22:07;;;;;;;10.23;5.35;;;12.70;99.90;;;;;;5020103;28;20283;-76
2022/10/08 05:24:34;;;;;;;10.75;4.70;;;12.80;99.90;;;;;;5019667;28;20302;-74
2022/10/08 05:27:01;;;;;;;8.23;4.97;;;12.70;99.90;;;;;;5019374;28;20248;-76
2022/10/08 05:29:30;;;;;;;10.95;5.15;;;12.70;99.90;;;;;;5018536;28;20578;-75
2022/10/08 05:31:59;;;;;;;8.13;4.05;;;12.70;99.90;;;;;;5009133;28;20325;-76
2022/10/08 05:34:26;;;;;;;14.35;5.85;;;12.80;99.90;;;;;;5010731;28;20214;-75
2022/10/08 05:36:53;;;;;;;10.35;5.03;;;12.80;99.90;;;;;;5019772;28;20216;-72
2022/10/08 05:39:20;;;;;;;7.38;4.68;;;12.70;99.90;;;;;;5033484;28;20223;-74
2022/10/08 05:41:48;;;;;;;13.05;5.47;;;12.70;99.90;;;;;;5020284;28;20255;-75
2022/10/08 05:44:16;;;;;;;9.43;4.95;;;12.70;99.90;;;;;;5013507;28;20207;-74
2022/10/08 05:46:43;;;;;;;12.98;5.82;;;12.70;99.90;;;;;;5024902;28;20207;-75
2022/10/08 05:49:19;;;;;;;16.00;4.88;;;12.70;99.90;;;;;;5028223;28;20219;-73
2022/10/08 05:51:46;;;;;;;12.43;4.60;;;12.70;99.90;;;;;;5021569;28;20207;-75
2022/10/08 05:54:15;;;;;;;11.90;4.15;;;12.60;99.90;;;;;;5025287;28;20366;-76
2022/10/08 05:56:42;;;;;;;9.85;5.45;;;12.60;99.90;;;;;;5020494;28;20293;-78
2022/10/08 05:59:16;;;;;;;11.82;5.80;;;12.50;99.90;;;;;;5027817;28;20229;-75
2022/10/08 06:01:43;;;;;;;13.80;4.90;;;12.50;99.90;;;;;;5015456;28;20223;-78
2022/10/08 06:04:13;;;;;;;10.60;5.65;;;12.50;99.90;;;;;;5019167;28;20203;-75
2022/10/08 06:06:43;;;;;;;13.15;5.57;;;12.40;99.90;;;;;;5024252;28;20311;-76
2022/10/08 06:09:13;;;;;;;23.05;5.65;;;12.40;99.90;;;;;;5020963;28;20234;-74
2022/10/08 06:11:41;;;;;;;9.57;4.80;;;12.40;99.90;;;;;;5010203;28;20386;-76
2022/10/08 06:14:10;;;;;;;12.00;4.63;;;12.40;99.90;;;;;;5020447;28;20207;-76
2022/10/08 06:16:38;;;;;;;13.27;4.57;;;12.30;99.90;;;;;;5021065;28;20212;-75
2022/10/08 06:19:05;;;;;;;7.30;4.57;;;12.30;99.90;;;;;;5016081;28;20234;-74
2022/10/08 06:21:35;;;;;;;10.70;4.75;;;12.30;99.90;;;;;;5007252;28;20224;-74
2022/10/08 06:24:03;;;;;;;13.55;4.93;;;12.30;99.90;;;;;;5020457;28;20282;-72
2022/10/08 06:26:32;;;;;;;9.88;4.90;;;12.20;99.90;;;;;;5021769;28;20665;-74
2022/10/08 06:28:59;;;;;;;19.40;5.35;;;12.30;99.90;;;;;;5022837;28;20310;-76
2022/10/08 06:31:27;;;;;;;7.35;4.40;;;12.30;99.90;;;;;;5025077;28;20201;-73
2022/10/08 06:33:56;;;;;;;10.27;5.40;;;12.40;99.90;;;;;;5015253;28;20667;-76
2022/10/08 06:36:24;;;;;;;9.90;5.82;;;12.40;99.90;;;;;;5010765;28;20219;-74
2022/10/08 06:38:54;;;;;;;8.15;5.43;;;12.80;99.90;;;;;;5027883;28;20736;-76
2022/10/08 06:41:21;;;;;;;14.13;4.88;;;13.50;99.90;;;;;;5023569;28;20290;-75
2022/10/08 06:43:52;;;;;;;11.20;4.13;;;14.20;99.90;;;;;;5015935;28;20638;-76
2022/10/08 06:46:19;;;;;;;14.48;5.03;;;14.90;99.90;;;;;;5030465;28;20198;-75
2022/10/08 06:48:47;;;;;;;12.70;5.60;;;15.70;99.90;;;;;;5027996;28;20233;-73
2022/10/08 06:51:15;;;;;;;10.17;4.83;;;16.30;99.90;;;;;;5027283;28;20873;-74
2022/10/08 06:53:58;;;;;;;12.87;5.23;;;17.00;99.90;;;;;;5022600;28;20447;-75
2022/10/08 06:56:26;;;;;;;9.83;5.10;;;17.20;99.90;;;;;;5028041;28;20466;-74
2022/10/08 06:58:53;;;;;;;7.40;4.30;;;17.60;99.90;;;;;;5014147;28;20468;-75
2022/10/08 07:01:22;;;;;;;11.00;4.80;;;17.80;99.90;;;;;;5016995;28;21020;-77
2022/10/08 07:03:50;;;;;;;13.07;5.67;;;17.00;99.90;;;;;;5018934;28;20570;-75
2022/10/08 07:06:17;;;;;;;12.10;5.40;;;16.50;99.90;;;;;;5019763;28;20456;-75
2022/10/08 07:08:44;;;;;;;17.90;4.37;;;16.50;99.90;;;;;;5024261;28;20489;-74
2022/10/08 07:11:14;;;;;;;16.67;4.43;;;17.00;99.90;;;;;;5021340;28;20827;-74
2022/10/08 07:13:41;;;;;;;10.60;6.00;;;17.80;99.90;;;;;;5016789;28;21024;-73
2022/10/08 07:16:10;;;;;;;7.50;5.57;;;18.00;99.90;;;;;;5015049;28;20476;-76
2022/10/08 07:18:38;;;;;;;12.50;5.87;;;18.30;99.90;;;;;;5017471;28;20541;-76
2022/10/08 07:21:07;;;;;;;7.20;5.17;;;18.70;99.90;;;;;;5020384;28;20525;-75
2022/10/08 07:23:34;;;;;;;7.97;5.10;;;19.50;99.90;;;;;;5013311;28;20492;-77
2022/10/08 07:26:02;;;;;;;14.50;5.23;;;19.30;99.90;;;;;;5022434;28;20480;-75
2022/10/08 07:28:33;;;;;;;11.50;5.10;;;19.60;99.90;;;;;;5017326;28;20473;-75
2022/10/08 07:31:04;;;;;;;8.87;5.57;;;19.90;99.90;;;;;;5025897;28;20533;-76
2022/10/08 07:33:31;;;;;;;11.63;4.20;;;20.50;99.90;;;;;;5014009;28;20451;-78
2022/10/08 07:36:06;;;;;;;11.73;4.70;;;21.00;99.90;;;;;;5017266;28;20893;-75
2022/10/08 07:38:33;;;;;;;6.30;4.40;;;20.60;99.90;;;;;;5022235;28;20539;-78
2022/10/08 07:40:59;;;;;;;6.97;4.17;;;20.80;99.90;;;;;;5024233;28;20469;-76
2022/10/08 07:43:26;;;;;;;7.53;3.77;;;21.00;99.20;;;;;;5016228;28;20503;-74
2022/10/08 07:45:55;;;;;;;7.90;4.47;;;21.50;99.00;;;;;;5024228;28;20551;-75
2022/10/08 07:48:22;;;;;;;8.63;5.20;;;22.00;97.40;;;;;;5020852;28;20495;-77
2022/10/08 07:50:49;;;;;;;5.60;4.00;;;22.30;97.00;;;;;;5010936;28;20455;-77
2022/10/08 07:53:16;;;;;;;6.20;4.17;;;21.90;95.70;;;;;;5019294;28;20802;-75
2022/10/08 07:55:43;;;;;;;10.17;4.77;;;21.80;96.20;;;;;;5015986;28;20448;-76
2022/10/08 07:58:10;;;;;;;9.10;4.20;;;22.10;96.00;;;;;;5017103;28;20501;-76
2022/10/08 08:00:39;;;;;;;12.07;3.67;;;21.90;95.60;;;;;;5019984;28;20526;-76
2022/10/08 08:03:12;;;;;;;11.37;3.20;;;21.90;96.10;;;;;;5027910;28;20475;-75
2022/10/08 08:05:39;;;;;;;11.03;5.00;;;22.20;96.10;;;;;;5015688;28;20443;-78
2022/10/08 08:08:06;;;;;;;12.07;4.20;;;22.70;94.80;;;;;;5018269;28;20486;-75
2022/10/08 08:10:32;;;;;;;5.77;3.90;;;22.60;94.20;;;;;;5023745;28;20490;-74
2022/10/08 08:12:59;;;;;;;10.73;4.13;;;23.10;94.10;;;;;;5017784;28;20515;-73
2022/10/08 08:15:26;;;;;;;6.13;3.70;;;23.10;93.80;;;;;;5025196;28;20466;-76
2022/10/08 08:17:53;;;;;;;14.80;4.57;;;23.00;93.30;;;;;;5023990;28;20481;-75
2022/10/08 08:20:21;;;;;;;7.93;3.13;;;23.20;93.50;;;;;;5023961;28;20538;-75
2022/10/08 08:22:48;;;;;;;6.40;3.23;;;23.50;93.00;;;;;;5029785;28;20485;-73
2022/10/08 08:25:15;;;;;;;5.77;3.33;;;23.20;92.00;;;;;;5025327;28;20520;-74
2022/10/08 08:27:42;;;;;;;7.70;3.50;;;23.20;91.80;;;;;;5028932;28;20999;-75
2022/10/08 08:30:10;;;;;;;5.87;3.00;;;23.70;92.30;;;;;;5012592;28;20457;-74
2022/10/08 08:32:37;;;;;;;6.60;2.93;;;23.60;91.40;;;;;;5021855;28;20472;-74
2022/10/08 08:35:05;;;;;;;14.30;3.70;;;23.90;91.40;;;;;;5036331;28;20451;-76
2022/10/08 08:37:34;;;;;;;10.93;4.07;;;23.70;91.10;;;;;;5034329;28;21011;-74
2022/10/08 08:40:01;;;;;;;12.87;4.30;;;23.40;91.60;;;;;;5022925;28;20444;-77
2022/10/08 08:42:50;;;;;;;6.23;2.70;;;22.60;92.60;;;;;;5010253;28;20585;-77
2022/10/08 08:45:28;;;;;;;10.70;3.00;;;22.90;92.90;;;;;;5022568;28;20494;-76
2022/10/08 08:48:04;;;;;;;9.03;2.63;;;23.00;92.40;;;;;;5019540;28;20487;-77
2022/10/08 08:50:35;;;;;;;9.00;3.40;;;23.10;92.20;;;;;;5017557;28;20471;-76
2022/10/08 08:53:04;;;;;;;8.17;3.53;;;23.00;92.60;;;;;;5022400;28;20494;-74
2022/10/08 08:55:40;;;;;;;7.60;2.77;;;22.70;92.10;;;;;;5016164;28;20436;-75
2022/10/08 08:58:22;;;;;;;8.33;3.57;;;22.90;92.70;;;;;;5015490;28;20477;-74
2022/10/08 09:00:57;;;;;;;5.60;2.77;;;22.50;91.80;;;;;;5021999;28;20530;-77
2022/10/08 09:03:29;;;;;;;6.43;1.97;;;22.70;92.10;;;;;;5029177;28;20517;-75
2022/10/08 09:06:00;;;;;;;6.60;2.47;;;22.60;92.10;;;;;;5019305;28;20471;-76
2022/10/08 09:08:31;;;;;;;5.63;3.73;;;23.00;91.10;;;;;;5018234;28;20474;-77
2022/10/08 09:11:01;;;;;;;8.40;3.00;;;23.60;90.60;;;;;;5010853;28;20501;-75
2022/10/08 09:13:32;;;;;;;8.00;2.50;;;24.70;88.70;;;;;;5021570;28;20454;-75
2022/10/08 09:15:59;;;;;;;12.97;2.67;;;24.90;88.30;;;;;;5022388;28;20447;-77
2022/10/08 09:18:26;;;;;;;9.27;2.70;;;24.40;86.90;;;;;;5020946;28;20551;-75
2022/10/08 09:20:54;;;;;;;9.30;2.30;;;24.50;85.90;;;;;;5022656;28;20480;-76
2022/10/08 09:23:22;;;;;;;7.27;2.37;;;24.10;87.60;;;;;;5025592;28;20491;-75
2022/10/08 09:26:00;;;;;;;8.63;3.10;;;24.10;86.00;;;;;;5015579;28;20527;-75
2022/10/08 09:28:41;;;;;;;4.30;1.70;;;23.00;88.50;;;;;;5018107;28;20544;-73
2022/10/08 09:31:18;;;;;;;5.87;2.13;;;22.90;88.20;;;;;;5018033;28;20451;-75
2022/10/08 09:33:45;;;;;;;10.57;3.60;;;22.90;89.50;;;;;;5024935;28;20775;-74
2022/10/08 09:36:12;;;;;;;3.43;2.30;;;21.90;90.70;;;;;;5024848;28;20450;-74
2022/10/08 09:38:40;;;;;;;8.70;2.67;;;20.60;93.10;;;;;;5028477;28;20563;-78
2022/10/08 09:41:18;;;;;;;6.00;2.03;;;19.60;96.70;;;;;;5026945;28;20619;-74
2022/10/08 09:44:04;;;;;;;6.27;1.73;;;18.40;98.10;;;;;;5007543;28;21120;-76
2022/10/08 09:46:33;;;;;;;8.20;2.40;;;17.90;99.90;;;;;;5023635;28;21000;-78
2022/10/08 09:49:21;;;;;;;14.73;2.37;;;17.20;99.90;;;;;;5025043;28;20627;-73
2022/10/08 09:51:50;;;;;;;8.70;2.43;;;17.20;99.90;;;;;;5025852;28;20448;-77
2022/10/08 09:54:22;;;;;;;10.63;2.47;;;18.00;99.90;;;;;;5028223;28;20462;-77
2022/10/08 09:56:55;;;;;;;4.10;2.17;;;18.80;99.90;;;;;;5010426;28;20460;-76
2022/10/08 09:59:24;;;;;;;11.60;2.57;;;19.30;99.50;;;;;;5017786;28;20564;-77
2022/10/08 10:01:53;;;;;;;5.97;2.30;;;19.20;97.90;;;;;;5019723;28;20482;-76
2022/10/08 10:04:26;;;;;;;6.33;2.03;;;18.50;98.90;;;;;;5019972;28;20483;-75
2022/10/08 10:06:54;;;;;;;3.07;1.67;;;18.10;99.30;;;;;;5026463;28;20553;-78
2022/10/08 10:09:30;;;;;;;11.93;2.70;;;17.20;99.90;;;;;;5015553;28;20964;-76
2022/10/08 10:12:03;;;;;;;4.90;1.90;;;16.90;99.90;;;;;;5014965;28;20455;-78
2022/10/08 10:14:41;;;;;;;7.53;1.60;;;17.00;99.90;;;;;;5020421;28;20440;-76
2022/10/08 10:17:15;;;;;;;3.47;1.57;;;17.70;99.90;;;;;;5026257;28;20973;-74
2022/10/08 10:19:48;;;;;;;4.67;1.40;;;18.00;99.30;;;;;;5024630;28;20453;-74
2022/10/08 10:22:21;;;;;;;3.47;1.17;;;18.70;99.90;;;;;;5034208;28;20475;-79
2022/10/08 10:24:54;;;;;;;6.13;1.83;;;19.50;97.50;;;;;;5030185;28;20914;-76
2022/10/08 10:27:29;;;;;;;3.67;1.83;;;20.10;95.10;;;;;;5026717;28;20470;-76
2022/10/08 10:30:10;;;;;;;3.97;1.30;;;20.10;93.90;;;;;;5003777;28;20533;-74
2022/10/08 10:32:43;;;;;;;4.90;2.00;;;20.40;93.50;;;;;;5024182;28;20869;-76
2022/10/08 10:35:14;;;;;;;7.63;1.50;;;20.50;92.90;;;;;;5014307;28;20452;-76
2022/10/08 10:37:49;;;;;;;7.30;1.77;;;20.10;92.20;;;;;;5021867;28;20547;-76
2022/10/08 10:40:29;;;;;;;5.70;2.00;;;19.40;92.60;;;;;;5021700;28;20467;-76
2022/10/08 10:43:06;;;;;;;3.23;1.43;;;19.00;93.10;;;;;;5012208;28;20519;-76
2022/10/08 10:45:34;;;;;;;4.40;1.33;;;18.50;93.40;;;;;;5018477;28;20544;-77
2022/10/08 10:48:02;;;;;;;6.07;1.50;;;18.10;94.00;;;;;;5019084;28;20474;-78
2022/10/08 10:50:37;;;;;;;7.57;1.43;;;17.80;95.00;;;;;;5013565;28;20474;-75
2022/10/08 10:53:15;;;;;;;8.77;2.47;;;17.20;95.90;;;;;;5012810;28;20507;-75
2022/10/08 10:55:50;;;;;;;6.03;1.63;;;17.00;97.60;;;;;;5023117;28;20446;-74
2022/10/08 10:58:40;;;;;;;7.20;2.13;;;16.80;99.10;;;;;;5018061;28;20471;-77
2022/10/08 11:01:19;;;;;;;6.03;1.60;;;16.60;99.90;;;;;;5015052;28;20744;-77
2022/10/08 11:03:58;;;;;;;9.20;2.05;;;16.70;99.90;;;;;;5030864;28;20485;-73
2022/10/08 11:06:46;;;;;;;7.57;1.77;;;17.20;99.90;;;;;;5014664;28;20666;-75
2022/10/08 11:09:25;;;;;;;7.80;2.53;;;17.60;99.90;;;;;;5016559;28;20634;-76
2022/10/08 11:11:58;;;;;;;5.77;1.73;;;18.00;99.00;;;;;;5012776;28;20478;-77
2022/10/08 11:14:43;;;;;;;7.73;1.67;;;18.20;98.60;;;;;;5016090;28;20859;-77
2022/10/08 11:17:29;;;;;;;6.17;2.30;;;18.30;98.20;;;;;;5024943;28;20544;-78
2022/10/08 11:20:11;;;;;;;3.70;1.27;;;18.30;97.00;;;;;;5007073;28;20456;-77
2022/10/08 11:22:42;;;;;;;5.83;1.40;;;18.40;96.50;;;;;;5018083;28;20840;-76
2022/10/08 11:25:24;;;;;;;9.43;2.10;;;18.50;96.40;;;;;;5022436;28;20494;-74
2022/10/08 11:28:02;;;;;;;5.40;1.40;;;18.40;95.60;;;;;;5011880;28;20510;-76
2022/10/08 11:30:41;;;;;;;9.97;2.43;;;18.30;96.30;;;;;;5010849;28;20519;-76
2022/10/08 11:33:12;;;;;;;8.13;1.40;;;18.40;96.30;;;;;;5011586;28;20526;-75
2022/10/08 11:35:46;;;;;;;7.60;2.33;;;18.40;94.40;;;;;;5014588;28;20531;-78
2022/10/08 11:38:19;;;;;;;4.40;1.40;;;18.10;93.80;;;;;;5024862;28;20823;-75
2022/10/08 11:40:49;;;;;;;3.00;2.10;;;18.00;93.60;;;;;;5017760;28;20855;-76
2022/10/08 11:43:26;;;;;;;2.87;1.53;;;17.90;93.60;;;;;;5006072;28;20522;-76
2022/10/08 11:46:27;;;;;;;4.23;1.40;;;17.70;93.50;;;;;;5004864;28;20457;-76
2022/10/08 11:48:55;;;;;;;9.77;1.80;;;17.50;93.80;;;;;;5011611;28;20513;-78
2022/10/08 11:51:39;;;;;;;4.43;1.70;;;17.50;93.50;;;;;;5019536;28;20447;-77
2022/10/08 11:54:13;;;;;;;3.30;1.30;;;17.40;93.80;;;;;;5009304;28;20530;-73
2022/10/08 11:56:42;;;;;;;6.07;1.97;;;17.20;93.50;;;;;;5030662;28;20456;-74
2022/10/08 11:59:35;;;;;;;5.13;1.40;;;17.40;93.70;;;;;;5019155;28;20503;-76
2022/10/08 12:02:17;;;;;;;6.07;1.73;;;17.50;93.90;;;;;;5022746;28;20447;-75
2022/10/08 12:04:48;;;;;;;5.43;2.13;;;17.60;93.80;;;;;;5036545;28;20518;-72
2022/10/08 12:07:23;;;;;;;6.93;1.23;;;17.70;94.30;;;;;;5033143;28;20546;-74
2022/10/08 12:10:28;;;;;;;2.77;1.20;;;17.50;94.70;;;;;;5012818;28;20479;-74
2022/10/08 12:13:28;;;;;;;3.37;1.30;;;17.70;94.80;;;;;;5022044;28;20450;-76
2022/10/08 12:16:03;;;;;;;5.30;1.17;;;17.60;94.80;;;;;;5018031;28;20451;-74
2022/10/08 12:18:43;;;;;;;3.63;1.50;;;17.70;94.90;;;;;;5026003;28;20463;-76
2022/10/08 12:21:51;;;;;;;5.47;1.40;;;17.70;94.90;;;;;;5010993;28;20539;-79
2022/10/08 12:24:57;;;;;;;3.67;1.40;;;17.80;94.60;;;;;;4959870;28;21094;-78
2022/10/08 12:27:36;;;;;;;10.60;1.93;;;18.00;94.50;;;;;;4949734;28;20529;-74
2022/10/08 12:30:09;;;;;;;3.57;1.23;;;18.20;94.50;;;;;;5003498;28;20443;-76
2022/10/08 12:32:56;;;;;;;9.40;2.17;;;18.30;93.80;;;;;;5016077;28;20444;-77
2022/10/08 12:35:28;;;;;;;2.87;1.30;;;18.30;93.20;;;;;;5023471;28;20443;-77
2022/10/08 12:38:24;;;;;;;6.13;2.00;;;18.30;93.30;;;;;;5028197;28;20459;-76
2022/10/08 12:40:59;;;;;;;5.20;1.47;;;18.10;91.80;;;;;;5016283;28;20976;-77
2022/10/08 12:43:36;;;;;;;10.13;2.07;;;17.70;92.00;;;;;;5015289;28;20471;-77
2022/10/08 12:46:16;;;;;;;7.23;1.90;;;17.50;92.90;;;;;;5011350;28;20531;-75
2022/10/08 12:48:49;;;;;;;3.80;1.70;;;17.30;93.20;;;;;;5013989;28;20476;-75
2022/10/08 12:51:25;;;;;;;5.37;1.47;;;17.20;93.60;;;;;;5025798;28;20914;-80
2022/10/08 12:53:53;;;;;;;3.33;1.60;;;17.00;93.80;;;;;;5011347;28;20521;-76
2022/10/08 12:56:26;;;;;;;6.07;2.20;;;16.80;94.10;;;;;;5027268;28;20508;-75
2022/10/08 12:58:55;;;;;;;6.20;1.73;;;16.60;94.10;;;;;;5014641;28;20556;-79
2022/10/08 13:01:24;;;;;;;5.23;1.60;;;16.70;94.50;;;;;;5023074;28;20451;-76
2022/10/08 13:04:09;;;;;;;3.73;1.60;;;16.80;94.50;;;;;;5018507;28;20700;-78
2022/10/08 13:06:38;;;;;;;7.50;2.40;;;16.90;94.80;;;;;;5017971;28;20460;-77